Hosford, Florida
Current Conditions -  °F | °C
As of 3:15 AM on Thursday 29 Jan 2015 (Local Time) from K2J9 Reporting Station
Clear Clear  
Wind Chill: -3°   Ceiling: Unl
Heat Index:   Visibility: 9mi
Dew Point:   Wind: 5mph
Humidity: 100%   Direction: 130°SE
Pressure: 30.3"   Gusts: NA
Location:  30.39°N, 84.8°W
Report Text: K2J9 290815Z AUTO 13004KT 9SM CLR 00/00 A3030 RMK AO1
Loading
Personal Weather Stations






























Interactive Weather Map New forecast layout! Learn more

10-Day Weather Forecast

Advertisements
Track Severe Weather on mobile